• Join FlightAware (Why Join?)
  • Login
  • US Flag 
11:56AM EDT


 

Airport Tracker/Info


-or-


 

Live Flight TrackerFlight Track Log ✈ CTL18 ✈ 03-Jul-2013 ✈ KPTK - KMBS

Flight Track Log - Related Links

Times and Time Zones

All times are in EDT time to prevent confusion due to time zone crossing. See the CTL18 flight status page for this flight to view local times or setup timezone preferences in your user account.

Time Position Orientation Groundspeed Altitude Reporting Facility
EDT Latitude Longitude Course Direction KTS MPH feet Rate Location/Type
07:06PM 42.6644 -83.4381 22° Northeast 108 124 1,400  Level Cleveland Center
07:08PM 42.7144 -83.4105 22° Northeast  Level FlightAware Approximate
07:15PM 42.9463 -83.4176 321° Northwest  Level FlightAware Approximate
07:16PM 42.9737 -83.4477 321° Northwest  Level FlightAware Approximate
07:17PM 43.0011 -83.4779 321° Northwest  Level FlightAware Approximate
07:18PM 43.0285 -83.5081 321° Northwest  Level FlightAware Approximate
07:19PM 43.0559 -83.5383 321° Northwest  Level FlightAware Approximate
07:20PM 43.0832 -83.5686 321° Northwest  Level FlightAware Approximate
07:21PM 43.1106 -83.5989 321° Northwest  Level FlightAware Approximate
07:22PM 43.1379 -83.6292 321° Northwest  Level FlightAware Approximate
07:23PM 43.1653 -83.6595 321° Northwest  Level FlightAware Approximate
07:24PM 43.1926 -83.6899 321° Northwest  Level FlightAware Approximate
07:25PM 43.2198 -83.7205 318° Northwest  Level FlightAware Approximate
07:26PM 43.2461 -83.7526 318° Northwest  Level FlightAware Approximate
07:27PM 43.2724 -83.7847 318° Northwest  Level FlightAware Approximate
07:28PM 43.2987 -83.8168 318° Northwest  Level FlightAware Approximate
07:29PM 43.3250 -83.8489 318° Northwest  Level FlightAware Approximate
07:30PM 43.3513 -83.8811 318° Northwest  Level FlightAware Approximate
07:31PM 43.3784 -83.9117 324° Northwest  Level FlightAware Approximate
07:32PM 43.4069 -83.9402 324° Northwest  Level FlightAware Approximate
07:33PM 43.4354 -83.9686 324° Northwest  Level FlightAware Approximate
07:34PM 43.4638 -83.9971 324° Northwest  Level FlightAware Approximate
07:35PM 43.4923 -84.0256 324° Northwest  Level FlightAware Approximate
07:36PM 43.5146 -84.0624 305° West  Level FlightAware Approximate
07:37PM 43.5167 -84.0667 305° West  Level FlightAware Approximate